Time;durP1;ratioP1;P1;durP2;ratioP2;P2;SDS_P1;SDS_P2;PMS_P1;PMS_P2;Temp;Humidity;BMP_temperature;BMP_pressure;BME280_temperature;BME280_humidity;BME280_pressure;Samples;Min_cycle;Max_cycle;Signal;HPM_P1;HPM_P2
2022/08/08 00:02:07;;;;;;;;;;;;;;;;;;5006935;28;20430;-57
2022/08/08 00:04:33;;;;;;;;;;;;;;;;;;5006204;28;19926;-58
2022/08/08 00:06:59;;;;;;;;;;;;;;;;;;5005919;28;19936;-57
2022/08/08 00:09:25;;;;;;;;;;;;;;;;;;5015564;28;20333;-57
2022/08/08 00:11:51;;;;;;;;;;;;;;;;;;5026059;28;19925;-57
2022/08/08 00:14:17;;;;;;;;;;;;;;;;;;5026161;28;19925;-58
2022/08/08 00:16:43;;;;;;;;;;;;;;;;;;5025994;28;19929;-58
2022/08/08 00:19:09;;;;;;;;;;;;;;;;;;5025999;28;20069;-58
2022/08/08 00:21:35;;;;;;;;;;;;;;;;;;5007743;28;19925;-58
2022/08/08 00:24:01;;;;;;;;;;;;;;;;;;5025354;28;20020;-58
2022/08/08 00:26:27;;;;;;;;;;;;;;;;;;5025127;28;19925;-58
2022/08/08 00:28:53;;;;;;;;;;;;;;;;;;5026026;28;19929;-57
2022/08/08 00:31:19;;;;;;;;;;;;;;;;;;5025464;28;19925;-58
2022/08/08 00:33:45;;;;;;;;;;;;;;;;;;5025299;28;20013;-58
2022/08/08 00:36:12;;;;;;;;;;;;;;;;;;5025034;28;20007;-58
2022/08/08 00:38:38;;;;;;;;;;;;;;;;;;5025870;28;19933;-57
2022/08/08 00:41:04;;;;;;;;;;;;;;;;;;5025122;28;19971;-58
2022/08/08 00:43:31;;;;;;;;;;;;;;;;;;5025402;28;19924;-58
2022/08/08 00:45:57;;;;;;;;;;;;;;;;;;5025131;28;20016;-57
2022/08/08 00:48:23;;;;;;;;;;;;;;;;;;5025374;28;19925;-57
2022/08/08 00:50:49;;;;;;;;;;;;;;;;;;5025292;28;19932;-58
2022/08/08 00:53:15;;;;;;;;;;;;;;;;;;5025115;28;19925;-58
2022/08/08 00:55:42;;;;;;;;;;;;;;;;;;5024718;28;20028;-58
2022/08/08 00:58:08;;;;;;;;;;;;;;;;;;5025133;28;20621;-57
2022/08/08 01:00:34;;;;;;;;;;;;;;;;;;5025199;28;19925;-58
2022/08/08 01:03:00;;;;;;;;;;;;;;;;;;5025141;28;19979;-58
2022/08/08 01:05:26;;;;;;;;;;;;;;;;;;5024923;28;19925;-59
2022/08/08 01:07:52;;;;;;;;;;;;;;;;;;5024531;28;19925;-57
2022/08/08 01:10:18;;;;;;;;;;;;;;;;;;5023866;28;19925;-58
2022/08/08 01:15:20;;;;;;;;;;;;;;;;;;4945542;28;21382;-58
2022/08/08 01:17:46;;;;;;;;;;;;;;;;;;4946554;29;19965;-57
2022/08/08 01:20:12;;;;;;;;;;;;;;;;;;4946459;29;19970;-57
2022/08/08 01:22:38;;;;;;;;;;;;;;;;;;4947182;29;19926;-57
2022/08/08 01:25:04;;;;;;;;;;;;;;;;;;4946523;29;19926;-57
2022/08/08 01:27:30;;;;;;;;;;;;;;;;;;4946576;29;19926;-57
2022/08/08 01:29:56;;;;;;;;;;;;;;;;;;4946176;29;19965;-57
2022/08/08 01:32:22;;;;;;;;;;;;;;;;;;4946620;29;19996;-57
2022/08/08 01:34:48;;;;;;;;;;;;;;;;;;4946213;29;19927;-57
2022/08/08 01:37:14;;;;;;;;;;;;;;;;;;4946179;28;20352;-57
2022/08/08 01:39:40;;;;;;;;;;;;;;;;;;4945727;29;20372;-58
2022/08/08 01:42:06;;;;;;;;;;;;;;;;;;4958401;28;19927;-57
2022/08/08 01:44:32;;;;;;;;;;;;;;;;;;4965581;28;19926;-57
2022/08/08 01:46:58;;;;;;;;;;;;;;;;;;4965801;28;19930;-58
2022/08/08 01:49:25;;;;;;;;;;;;;;;;;;4965390;28;19997;-58
2022/08/08 01:51:53;;;;;;;;;;;;;;;;;;4965863;28;19933;-57
2022/08/08 01:54:19;;;;;;;;;;;;;;;;;;4964574;28;20637;-57
2022/08/08 01:56:45;;;;;;;;;;;;;;;;;;4965711;28;19942;-58
2022/08/08 01:59:11;;;;;;;;;;;;;;;;;;4965235;28;19930;-58
2022/08/08 02:01:37;;;;;;;;;;;;;;;;;;4959917;28;19962;-58
2022/08/08 02:04:03;;;;;;;;;;;;;;;;;;4965214;28;20600;-57
2022/08/08 02:06:29;;;;;;;;;;;;;;;;;;4965333;28;20007;-58
2022/08/08 02:08:55;;;;;;;;;;;;;;;;;;4964899;28;20025;-57
2022/08/08 02:11:21;;;;;;;;;;;;;;;;;;4965436;28;20432;-58
2022/08/08 02:13:47;;;;;;;;;;;;;;;;;;4965328;28;19926;-57
2022/08/08 02:16:13;;;;;;;;;;;;;;;;;;4965113;28;19933;-57
2022/08/08 02:18:39;;;;;;;;;;;;;;;;;;4965328;28;20021;-59
2022/08/08 02:23:49;;;;;;;;;;;;;;;;;;4964868;28;19933;-57
2022/08/08 02:26:15;;;;;;;;;;;;;;;;;;4964621;28;19926;-57
2022/08/08 02:28:41;;;;;;;;;;;;;;;;;;4965409;28;19948;-58
2022/08/08 02:31:07;;;;;;;;;;;;;;;;;;4965684;28;19930;-57
2022/08/08 02:33:33;;;;;;;;;;;;;;;;;;4965425;28;19974;-57
2022/08/08 02:35:59;;;;;;;;;;;;;;;;;;4947792;28;20379;-57
2022/08/08 02:38:25;;;;;;;;;;;;;;;;;;4964602;28;20029;-57
2022/08/08 02:40:51;;;;;;;;;;;;;;;;;;4964761;28;19930;-58
2022/08/08 02:43:17;;;;;;;;;;;;;;;;;;4964898;28;20347;-58
2022/08/08 02:45:43;;;;;;;;;;;;;;;;;;4965300;28;19926;-58
2022/08/08 02:48:09;;;;;;;;;;;;;;;;;;4947586;28;19928;-58
2022/08/08 02:50:35;;;;;;;;;;;;;;;;;;4968530;28;19927;-58
2022/08/08 02:53:01;;;;;;;;;;;;;;;;;;4968730;28;19933;-57
2022/08/08 02:55:27;;;;;;;;;;;;;;;;;;4968124;28;19922;-57
2022/08/08 02:57:53;;;;;;;;;;;;;;;;;;4961932;28;20416;-57
2022/08/08 03:00:19;;;;;;;;;;;;;;;;;;4968217;28;19969;-57
2022/08/08 03:02:45;;;;;;;;;;;;;;;;;;4968740;28;19933;-58
2022/08/08 03:05:11;;;;;;;;;;;;;;;;;;4968637;28;19926;-57
2022/08/08 03:07:37;;;;;;;;;;;;;;;;;;4969038;28;19926;-58
2022/08/08 03:10:03;;;;;;;;;;;;;;;;;;4967760;28;20430;-57
2022/08/08 03:12:29;;;;;;;;;;;;;;;;;;4967596;28;19973;-57
2022/08/08 03:14:55;;;;;;;;;;;;;;;;;;4950714;28;19926;-57
2022/08/08 03:17:21;;;;;;;;;;;;;;;;;;4968308;28;19926;-58
2022/08/08 03:19:48;;;;;;;;;;;;;;;;;;4968097;28;19949;-58
2022/08/08 03:22:14;;;;;;;;;;;;;;;;;;4968126;28;19934;-58
2022/08/08 03:24:40;;;;;;;;;;;;;;;;;;4967066;28;19926;-58
2022/08/08 03:27:06;;;;;;;;;;;;;;;;;;4968423;28;19926;-57
2022/08/08 03:29:32;;;;;;;;;;;;;;;;;;4967770;28;19934;-58
2022/08/08 03:34:43;;;;;;;;;;;;;;;;;;4967867;28;19973;-58
2022/08/08 03:37:10;;;;;;;;;;;;;;;;;;4967614;28;19933;-58
2022/08/08 03:39:36;;;;;;;;;;;;;;;;;;4968078;28;20257;-57
2022/08/08 03:42:02;;;;;;;;;;;;;;;;;;4967957;28;20376;-58
2022/08/08 03:44:28;;;;;;;;;;;;;;;;;;4961486;28;20472;-57
2022/08/08 03:46:54;;;;;;;;;;;;;;;;;;4967582;28;20193;-57
2022/08/08 03:49:20;;;;;;;;;;;;;;;;;;4967873;28;19980;-57
2022/08/08 03:51:46;;;;;;;;;;;;;;;;;;4967432;28;19933;-58
2022/08/08 03:54:12;;;;;;;;;;;;;;;;;;4966885;28;20009;-58
2022/08/08 03:56:38;;;;;;;;;;;;;;;;;;4967038;28;19926;-58
2022/08/08 03:59:04;;;;;;;;;;;;;;;;;;4967926;28;19933;-57
2022/08/08 04:01:30;;;;;;;;;;;;;;;;;;4949134;28;19926;-58
2022/08/08 04:03:56;;;;;;;;;;;;;;;;;;4967255;28;19936;-58
2022/08/08 04:06:22;;;;;;;;;;;;;;;;;;4967194;28;20307;-58
2022/08/08 04:08:48;;;;;;;;;;;;;;;;;;4966129;28;19933;-58
2022/08/08 04:11:14;;;;;;;;;;;;;;;;;;4967064;28;19926;-57
2022/08/08 04:13:40;;;;;;;;;;;;;;;;;;4967312;28;19934;-58
2022/08/08 04:16:06;;;;;;;;;;;;;;;;;;4950287;28;20376;-58
2022/08/08 04:18:32;;;;;;;;;;;;;;;;;;4966889;28;19933;-57
2022/08/08 04:20:59;;;;;;;;;;;;;;;;;;4967003;28;19933;-58
2022/08/08 04:23:25;;;;;;;;;;;;;;;;;;4965936;28;19953;-58
2022/08/08 04:25:51;;;;;;;;;;;;;;;;;;4964864;28;19930;-58
2022/08/08 04:28:17;;;;;;;;;;;;;;;;;;4966717;28;19926;-57
2022/08/08 04:30:43;;;;;;;;;;;;;;;;;;4966641;28;20435;-58
2022/08/08 04:33:09;;;;;;;;;;;;;;;;;;4966523;28;19927;-59
2022/08/08 04:35:35;;;;;;;;;;;;;;;;;;4966950;28;19926;-58
2022/08/08 04:38:01;;;;;;;;;;;;;;;;;;4966548;28;20021;-58
2022/08/08 04:40:27;;;;;;;;;;;;;;;;;;4966191;28;20012;-58
2022/08/08 04:42:53;;;;;;;;;;;;;;;;;;4966251;28;20307;-57
2022/08/08 04:45:19;;;;;;;;;;;;;;;;;;4966598;28;19929;-57
2022/08/08 04:47:45;;;;;;;;;;;;;;;;;;4959209;28;19926;-57
2022/08/08 04:50:11;;;;;;;;;;;;;;;;;;4966291;28;19922;-58
2022/08/08 04:52:37;;;;;;;;;;;;;;;;;;4966505;28;19933;-58
2022/08/08 04:55:03;;;;;;;;;;;;;;;;;;4965401;28;19973;-57
2022/08/08 04:57:29;;;;;;;;;;;;;;;;;;4966387;28;20274;-57
2022/08/08 04:59:55;;;;;;;;;;;;;;;;;;4966302;28;20291;-57
2022/08/08 05:02:21;;;;;;;;;;;;;;;;;;4965962;28;19934;-57
2022/08/08 05:04:47;;;;;;;;;;;;;;;;;;4966236;28;20013;-57
2022/08/08 05:07:13;;;;;;;;;;;;;;;;;;4965458;28;19926;-58
2022/08/08 05:09:39;;;;;;;;;;;;;;;;;;4965791;28;19926;-59
2022/08/08 05:12:05;;;;;;;;;;;;;;;;;;4949139;28;19926;-58
2022/08/08 05:14:31;;;;;;;;;;;;;;;;;;4965054;28;19988;-57
2022/08/08 05:16:57;;;;;;;;;;;;;;;;;;4966258;28;19954;-57
2022/08/08 05:19:23;;;;;;;;;;;;;;;;;;4965499;28;20897;-57
2022/08/08 05:21:52;;;;;;;;;;;;;;;;;;4965900;28;19926;-58
2022/08/08 05:24:18;;;;;;;;;;;;;;;;;;4964387;28;20000;-58
2022/08/08 05:26:45;;;;;;;;;;;;;;;;;;4965589;28;20328;-58
2022/08/08 05:29:11;;;;;;;;;;;;;;;;;;4964898;28;19922;-58
2022/08/08 05:31:37;;;;;;;;;;;;;;;;;;4965907;28;19932;-58
2022/08/08 05:34:03;;;;;;;;;;;;;;;;;;4965540;28;19926;-58
2022/08/08 05:36:29;;;;;;;;;;;;;;;;;;4965113;28;20029;-58
2022/08/08 05:38:55;;;;;;;;;;;;;;;;;;4964907;28;20316;-57
2022/08/08 05:41:21;;;;;;;;;;;;;;;;;;4965045;28;19926;-57
2022/08/08 05:43:47;;;;;;;;;;;;;;;;;;4965677;28;20009;-58
2022/08/08 05:46:13;;;;;;;;;;;;;;;;;;4965387;28;19984;-58
2022/08/08 05:48:39;;;;;;;;;;;;;;;;;;4965501;28;20013;-59
2022/08/08 05:51:05;;;;;;;;;;;;;;;;;;4963326;28;19973;-58
2022/08/08 05:53:31;;;;;;;;;;;;;;;;;;4964217;28;19973;-57
2022/08/08 05:55:57;;;;;;;;;;;;;;;;;;4948260;28;20045;-57
2022/08/08 05:58:23;;;;;;;;;;;;;;;;;;4965267;28;20009;-57
2022/08/08 06:00:49;;;;;;;;;;;;;;;;;;4965207;28;19926;-58
2022/08/08 06:03:15;;;;;;;;;;;;;;;;;;4965007;28;19926;-58
2022/08/08 06:05:41;;;;;;;;;;;;;;;;;;4964290;28;19941;-58
2022/08/08 06:08:07;;;;;;;;;;;;;;;;;;4965112;28;19930;-57
2022/08/08 06:10:33;;;;;;;;;;;;;;;;;;4965448;28;19926;-57
2022/08/08 06:12:59;;;;;;;;;;;;;;;;;;4965182;28;20407;-57
2022/08/08 06:15:25;;;;;;;;;;;;;;;;;;4964922;28;19926;-57
2022/08/08 06:17:51;;;;;;;;;;;;;;;;;;4965068;28;19933;-57
2022/08/08 06:20:17;;;;;;;;;;;;;;;;;;4965367;28;20001;-58
2022/08/08 06:22:43;;;;;;;;;;;;;;;;;;4965349;28;20376;-57
2022/08/08 06:25:09;;;;;;;;;;;;;;;;;;4967167;28;19926;-60
2022/08/08 06:27:35;;;;;;;;;;;;;;;;;;4969222;28;19926;-57
2022/08/08 06:30:02;;;;;;;;;;;;;;;;;;4969308;28;19926;-57
2022/08/08 06:32:28;;;;;;;;;;;;;;;;;;4968772;28;19933;-58
2022/08/08 06:34:55;;;;;;;;;;;;;;;;;;4968491;28;19930;-58
2022/08/08 06:37:22;;;;;;;;;;;;;;;;;;4968923;28;20348;-58
2022/08/08 06:39:49;;;;;;;;;;;;;;;;;;4967464;28;19966;-57
2022/08/08 06:42:15;;;;;;;;;;;;;;;;;;4968885;28;19933;-58
2022/08/08 06:44:41;;;;;;;;;;;;;;;;;;4968604;28;19926;-58
2022/08/08 06:47:07;;;;;;;;;;;;;;;;;;4968560;28;20071;-57
2022/08/08 06:49:33;;;;;;;;;;;;;;;;;;4968560;28;20375;-58
2022/08/08 06:51:59;;;;;;;;;;;;;;;;;;4968704;28;19996;-58
2022/08/08 06:54:25;;;;;;;;;;;;;;;;;;4967804;28;19929;-58
2022/08/08 06:56:51;;;;;;;;;;;;;;;;;;4968763;28;20017;-57
2022/08/08 06:59:17;;;;;;;;;;;;;;;;;;4968516;28;19933;-58
2022/08/08 07:01:43;;;;;;;;;;;;;;;;;;4968730;28;19926;-58
2022/08/08 07:04:10;;;;;;;;;;;;;;;;;;4967913;28;20514;-59
2022/08/08 07:06:36;;;;;;;;;;;;;;;;;;4968879;28;19926;-58
2022/08/08 07:09:02;;;;;;;;;;;;;;;;;;4968298;28;20292;-58
2022/08/08 07:11:28;;;;;;;;;;;;;;;;;;4968283;28;20407;-58
2022/08/08 07:13:54;;;;;;;;;;;;;;;;;;4967952;28;19991;-58
2022/08/08 07:16:20;;;;;;;;;;;;;;;;;;4968412;28;19926;-58
2022/08/08 07:18:46;;;;;;;;;;;;;;;;;;4968499;28;20127;-58
2022/08/08 07:21:12;;;;;;;;;;;;;;;;;;4968198;28;19949;-59
2022/08/08 07:23:38;;;;;;;;;;;;;;;;;;4968317;28;20404;-59
2022/08/08 07:26:04;;;;;;;;;;;;;;;;;;4951067;28;20261;-58
2022/08/08 07:28:30;;;;;;;;;;;;;;;;;;4950561;28;20456;-58
2022/08/08 07:30:57;;;;;;;;;;;;;;;;;;4968254;28;19926;-58
2022/08/08 07:33:23;;;;;;;;;;;;;;;;;;4967988;28;19926;-58
2022/08/08 07:35:49;;;;;;;;;;;;;;;;;;4966757;28;20622;-58
2022/08/08 07:38:15;;;;;;;;;;;;;;;;;;4966843;28;19926;-58
2022/08/08 07:40:41;;;;;;;;;;;;;;;;;;4968318;28;19926;-58
2022/08/08 07:43:07;;;;;;;;;;;;;;;;;;4968041;28;19936;-60
2022/08/08 07:45:33;;;;;;;;;;;;;;;;;;4967224;28;20015;-61
2022/08/08 07:47:59;;;;;;;;;;;;;;;;;;4968191;28;19926;-61
2022/08/08 07:50:25;;;;;;;;;;;;;;;;;;4967410;28;19933;-58
2022/08/08 07:52:51;;;;;;;;;;;;;;;;;;4967577;28;19949;-59
2022/08/08 07:55:17;;;;;;;;;;;;;;;;;;4967839;28;19926;-58
2022/08/08 07:57:43;;;;;;;;;;;;;;;;;;4968004;28;19922;-58
2022/08/08 08:00:09;;;;;;;;;;;;;;;;;;4967527;28;19973;-60
2022/08/08 08:02:35;;;;;;;;;;;;;;;;;;4967433;28;20294;-59
2022/08/08 08:05:01;;;;;;;;;;;;;;;;;;4967753;28;19926;-59
2022/08/08 08:07:33;;;;;;;;;;;;;;;;;;4967916;28;19930;-59
2022/08/08 08:09:59;;;;;;;;;;;;;;;;;;4967039;28;19961;-59
2022/08/08 08:12:25;;;;;;;;;;;;;;;;;;4966898;28;19956;-59
2022/08/08 08:14:51;;;;;;;;;;;;;;;;;;4967167;28;20005;-59
2022/08/08 08:17:17;;;;;;;;;;;;;;;;;;4967351;28;20021;-59
2022/08/08 08:19:43;;;;;;;;;;;;;;;;;;4967653;28;20442;-60
2022/08/08 08:22:09;;;;;;;;;;;;;;;;;;4950056;28;19926;-64
2022/08/08 08:24:35;;;;;;;;;;;;;;;;;;4966309;28;20372;-59
2022/08/08 08:27:01;;;;;;;;;;;;;;;;;;4967076;28;19926;-59
2022/08/08 08:29:27;;;;;;;;;;;;;;;;;;4966659;28;19926;-59
2022/08/08 08:31:53;;;;;;;;;;;;;;;;;;4967290;28;19927;-59
2022/08/08 08:34:19;;;;;;;;;;;;;;;;;;4967149;28;19930;-59
2022/08/08 08:36:45;;;;;;;;;;;;;;;;;;4966511;28;19926;-59
2022/08/08 08:39:11;;;;;;;;;;;;;;;;;;4966068;28;19952;-60
2022/08/08 08:41:37;;;;;;;;;;;;;;;;;;4967429;28;19933;-59
2022/08/08 08:44:03;;;;;;;;;;;;;;;;;;4967034;28;19941;-59
2022/08/08 08:46:29;;;;;;;;;;;;;;;;;;4966930;28;19926;-59
2022/08/08 08:48:55;;;;;;;;;;;;;;;;;;4966704;28;20406;-59
2022/08/08 08:51:21;;;;;;;;;;;;;;;;;;4966777;28;19922;-59
2022/08/08 08:53:47;;;;;;;;;;;;;;;;;;4966469;28;19926;-59
2022/08/08 08:56:13;;;;;;;;;;;;;;;;;;4966240;28;19930;-60
2022/08/08 08:58:41;;;;;;;;;;;;;;;;;;4966538;28;19933;-60
2022/08/08 09:01:07;;;;;;;;;;;;;;;;;;4967182;28;20009;-60
2022/08/08 09:03:33;;;;;;;;;;;;;;;;;;4966289;28;20578;-60
2022/08/08 09:05:59;;;;;;;;;;;;;;;;;;4966557;28;19977;-60
2022/08/08 09:08:26;;;;;;;;;;;;;;;;;;4966036;28;19926;-60
2022/08/08 09:10:52;;;;;;;;;;;;;;;;;;4965999;28;19992;-59
2022/08/08 09:13:18;;;;;;;;;;;;;;;;;;4966009;28;19969;-60
2022/08/08 09:15:44;;;;;;;;;;;;;;;;;;4966809;28;19926;-59
2022/08/08 09:18:10;;;;;;;;;;;;;;;;;;4966478;28;20113;-59
2022/08/08 09:20:37;;;;;;;;;;;;;;;;;;4949565;28;19927;-60
2022/08/08 09:23:03;;;;;;;;;;;;;;;;;;4964330;28;20736;-59
2022/08/08 09:25:29;;;;;;;;;;;;;;;;;;4966118;28;20013;-59
2022/08/08 09:27:55;;;;;;;;;;;;;;;;;;4965520;28;20038;-59
2022/08/08 09:30:21;;;;;;;;;;;;;;;;;;4965979;28;19936;-59
2022/08/08 09:32:47;;;;;;;;;;;;;;;;;;4966252;28;19927;-59
2022/08/08 09:35:13;;;;;;;;;;;;;;;;;;4965588;28;20029;-59
2022/08/08 09:37:39;;;;;;;;;;;;;;;;;;4965521;28;20009;-61
2022/08/08 09:40:05;;;;;;;;;;;;;;;;;;4966293;28;19926;-59
2022/08/08 09:42:31;;;;;;;;;;;;;;;;;;4966046;28;19984;-59
2022/08/08 09:44:57;;;;;;;;;;;;;;;;;;4965875;28;19937;-59
2022/08/08 09:47:23;;;;;;;;;;;;;;;;;;4965837;28;19926;-59
2022/08/08 09:49:49;;;;;;;;;;;;;;;;;;4966036;28;19933;-59
2022/08/08 09:52:15;;;;;;;;;;;;;;;;;;4965600;28;19926;-59
2022/08/08 09:54:42;;;;;;;;;;;;;;;;;;4965245;28;19974;-59
2022/08/08 09:57:09;;;;;;;;;;;;;;;;;;4965985;28;19930;-59
2022/08/08 09:59:35;;;;;;;;;;;;;;;;;;4965732;28;19926;-59
2022/08/08 10:02:01;;;;;;;;;;;;;;;;;;4965935;28;20480;-59
2022/08/08 10:04:27;;;;;;;;;;;;;;;;;;4965510;28;19933;-59
2022/08/08 10:06:53;;;;;;;;;;;;;;;;;;4966150;28;19926;-59
2022/08/08 10:09:19;;;;;;;;;;;;;;;;;;4964285;28;20384;-59
2022/08/08 10:11:45;;;;;;;;;;;;;;;;;;4965825;28;20004;-59
2022/08/08 10:14:11;;;;;;;;;;;;;;;;;;4965136;28;20026;-59
2022/08/08 10:16:37;;;;;;;;;;;;;;;;;;4966013;28;20009;-59
2022/08/08 10:19:03;;;;;;;;;;;;;;;;;;4965636;28;20351;-59
2022/08/08 10:21:29;;;;;;;;;;;;;;;;;;4964965;28;19930;-59
2022/08/08 10:23:55;;;;;;;;;;;;;;;;;;4965164;28;19941;-59
2022/08/08 10:26:21;;;;;;;;;;;;;;;;;;4965574;28;19926;-59
2022/08/08 10:28:47;;;;;;;;;;;;;;;;;;4965566;28;20001;-59
2022/08/08 10:33:57;;;;;;;;;;;;;;;;;;4965484;28;19933;-59
2022/08/08 10:36:23;;;;;;;;;;;;;;;;;;4964849;28;19930;-59
2022/08/08 10:38:49;;;;;;;;;;;;;;;;;;4965074;28;19926;-59
2022/08/08 10:41:15;;;;;;;;;;;;;;;;;;4965086;28;19926;-59
2022/08/08 10:43:41;;;;;;;;;;;;;;;;;;4965706;28;19953;-59
2022/08/08 10:46:24;;;;;;;;;;;;;;;;;;4965547;28;19963;-59
2022/08/08 10:48:50;;;;;;;;;;;;;;;;;;4964912;28;19933;-59
2022/08/08 10:51:16;;;;;;;;;;;;;;;;;;4965326;28;20013;-59
2022/08/08 10:53:42;;;;;;;;;;;;;;;;;;4964878;28;19926;-59
2022/08/08 10:56:09;;;;;;;;;;;;;;;;;;4965754;28;20380;-59
2022/08/08 10:58:35;;;;;;;;;;;;;;;;;;4965494;28;20391;-59
2022/08/08 11:01:01;;;;;;;;;;;;;;;;;;4964781;28;20435;-59
2022/08/08 11:03:27;;;;;;;;;;;;;;;;;;4965073;28;19926;-59
2022/08/08 11:05:53;;;;;;;;;;;;;;;;;;4963936;28;20296;-59
2022/08/08 11:08:19;;;;;;;;;;;;;;;;;;4964445;28;19956;-59
2022/08/08 11:10:45;;;;;;;;;;;;;;;;;;4966822;28;19933;-59
2022/08/08 11:13:11;;;;;;;;;;;;;;;;;;4967847;28;20009;-59
2022/08/08 11:15:37;;;;;;;;;;;;;;;;;;4969204;28;19930;-59
2022/08/08 11:18:03;;;;;;;;;;;;;;;;;;4968340;28;19981;-59
2022/08/08 11:20:29;;;;;;;;;;;;;;;;;;4968317;28;20008;-59
2022/08/08 11:22:55;;;;;;;;;;;;;;;;;;4967989;28;19934;-59
2022/08/08 11:25:21;;;;;;;;;;;;;;;;;;4968136;28;19926;-59
2022/08/08 11:27:47;;;;;;;;;;;;;;;;;;4968538;28;19926;-59
2022/08/08 11:30:13;;;;;;;;;;;;;;;;;;4968001;28;19926;-59
2022/08/08 11:32:40;;;;;;;;;;;;;;;;;;4951141;28;19926;-59
2022/08/08 11:35:06;;;;;;;;;;;;;;;;;;4968396;28;19926;-59
2022/08/08 11:37:32;;;;;;;;;;;;;;;;;;4967468;28;19930;-59
2022/08/08 11:39:58;;;;;;;;;;;;;;;;;;4968011;28;20020;-59
2022/08/08 11:42:25;;;;;;;;;;;;;;;;;;4954700;28;21932;-58
2022/08/08 11:44:51;;;;;;;;;;;;;;;;;;4955983;28;19933;-58
2022/08/08 11:47:17;;;;;;;;;;;;;;;;;;4953962;28;19926;-58
2022/08/08 11:49:43;;;;;;;;;;;;;;;;;;4958336;28;19938;-58
2022/08/08 11:52:09;;;;;;;;;;;;;;;;;;4954219;28;19935;-58
2022/08/08 11:54:35;;;;;;;;;;;;;;;;;;4957868;28;19926;-58
2022/08/08 11:57:01;;;;;;;;;;;;;;;;;;4956261;28;20340;-58
2022/08/08 11:59:27;;;;;;;;;;;;;;;;;;4955829;28;19933;-58
2022/08/08 12:01:53;;;;;;;;;;;;;;;;;;4954897;28;19933;-58
2022/08/08 12:04:19;;;;;;;;;;;;;;;;;;4956010;28;19926;-58
2022/08/08 12:06:45;;;;;;;;;;;;;;;;;;4955870;28;19934;-59
2022/08/08 12:09:11;;;;;;;;;;;;;;;;;;4956002;28;20020;-58
2022/08/08 12:11:37;;;;;;;;;;;;;;;;;;4943675;28;19969;-59
2022/08/08 12:14:03;;;;;;;;;;;;;;;;;;4967297;28;19997;-59
2022/08/08 12:16:29;;;;;;;;;;;;;;;;;;4967122;28;19937;-59
2022/08/08 12:18:56;;;;;;;;;;;;;;;;;;4967795;28;19930;-59
2022/08/08 12:21:22;;;;;;;;;;;;;;;;;;4966870;28;19927;-59
2022/08/08 12:23:48;;;;;;;;;;;;;;;;;;4966410;28;19928;-59
2022/08/08 12:26:14;;;;;;;;;;;;;;;;;;4967079;28;19949;-59
2022/08/08 12:28:40;;;;;;;;;;;;;;;;;;4967205;28;19926;-60
2022/08/08 12:31:06;;;;;;;;;;;;;;;;;;4967639;28;19926;-59
2022/08/08 12:33:32;;;;;;;;;;;;;;;;;;4966612;28;19937;-59
2022/08/08 12:35:58;;;;;;;;;;;;;;;;;;4966917;28;19926;-59
2022/08/08 12:38:24;;;;;;;;;;;;;;;;;;4966408;28;19978;-59
2022/08/08 12:40:52;;;;;;;;;;;;;;;;;;4967309;28;20311;-59
2022/08/08 12:43:18;;;;;;;;;;;;;;;;;;4967138;28;19926;-59
2022/08/08 12:45:45;;;;;;;;;;;;;;;;;;4966599;28;19926;-60
2022/08/08 12:48:11;;;;;;;;;;;;;;;;;;4966370;28;20013;-60
2022/08/08 12:50:37;;;;;;;;;;;;;;;;;;4967229;28;20013;-59
2022/08/08 12:53:03;;;;;;;;;;;;;;;;;;4966622;28;19926;-59
2022/08/08 12:55:29;;;;;;;;;;;;;;;;;;4966427;28;19985;-59
2022/08/08 12:57:55;;;;;;;;;;;;;;;;;;4966825;28;19926;-59
2022/08/08 13:00:21;;;;;;;;;;;;;;;;;;4966013;28;19949;-59
2022/08/08 13:02:47;;;;;;;;;;;;;;;;;;4966885;28;20299;-59
2022/08/08 13:05:13;;;;;;;;;;;;;;;;;;4966769;28;19926;-60
2022/08/08 13:07:39;;;;;;;;;;;;;;;;;;4965541;28;19929;-60
2022/08/08 13:10:06;;;;;;;;;;;;;;;;;;4966745;28;20376;-59
2022/08/08 13:12:32;;;;;;;;;;;;;;;;;;4966446;28;19922;-59
2022/08/08 13:14:58;;;;;;;;;;;;;;;;;;4966072;28;20296;-59
2022/08/08 13:17:25;;;;;;;;;;;;;;;;;;4966202;28;19926;-59
2022/08/08 13:19:51;;;;;;;;;;;;;;;;;;4965994;28;19926;-59
2022/08/08 13:22:17;;;;;;;;;;;;;;;;;;4965815;28;19981;-59
2022/08/08 13:24:43;;;;;;;;;;;;;;;;;;4966298;28;20284;-59
2022/08/08 13:27:09;;;;;;;;;;;;;;;;;;4966060;28;19933;-59
2022/08/08 13:29:36;;;;;;;;;;;;;;;;;;4966387;28;19930;-59
2022/08/08 13:32:02;;;;;;;;;;;;;;;;;;4965532;28;19981;-59
2022/08/08 13:34:28;;;;;;;;;;;;;;;;;;4947871;28;19926;-59
2022/08/08 13:36:54;;;;;;;;;;;;;;;;;;4965362;28;20458;-60
2022/08/08 13:39:20;;;;;;;;;;;;;;;;;;4965721;28;19926;-59
2022/08/08 13:41:46;;;;;;;;;;;;;;;;;;4965140;28;19926;-60
2022/08/08 13:44:12;;;;;;;;;;;;;;;;;;4966026;28;19980;-60
2022/08/08 13:46:38;;;;;;;;;;;;;;;;;;4966692;28;19933;-59
2022/08/08 13:49:05;;;;;;;;;;;;;;;;;;4966286;28;19966;-59
2022/08/08 13:51:31;;;;;;;;;;;;;;;;;;4965534;28;19926;-60
2022/08/08 13:53:57;;;;;;;;;;;;;;;;;;4964741;28;19936;-59
2022/08/08 13:56:23;;;;;;;;;;;;;;;;;;4965637;28;20073;-59
2022/08/08 13:58:49;;;;;;;;;;;;;;;;;;4966045;28;20013;-59
2022/08/08 14:01:15;;;;;;;;;;;;;;;;;;4965553;28;19960;-59
2022/08/08 14:03:41;;;;;;;;;;;;;;;;;;4965620;28;20359;-59
2022/08/08 14:06:07;;;;;;;;;;;;;;;;;;4965565;28;20017;-59
2022/08/08 14:08:33;;;;;;;;;;;;;;;;;;4964860;28;20536;-59
2022/08/08 14:10:59;;;;;;;;;;;;;;;;;;4965512;28;20008;-59
2022/08/08 14:13:25;;;;;;;;;;;;;;;;;;4965455;28;19927;-59
2022/08/08 14:15:51;;;;;;;;;;;;;;;;;;4965793;28;20373;-59
2022/08/08 14:18:17;;;;;;;;;;;;;;;;;;4965462;28;19933;-59
2022/08/08 14:20:43;;;;;;;;;;;;;;;;;;4965601;28;19926;-59
2022/08/08 14:23:09;;;;;;;;;;;;;;;;;;4965030;28;19926;-60
2022/08/08 14:25:35;;;;;;;;;;;;;;;;;;4966215;28;20014;-59
2022/08/08 14:28:01;;;;;;;;;;;;;;;;;;4948107;28;19926;-59
2022/08/08 14:30:27;;;;;;;;;;;;;;;;;;4965404;28;20022;-59
2022/08/08 14:32:53;;;;;;;;;;;;;;;;;;4965418;28;20025;-59
2022/08/08 14:35:19;;;;;;;;;;;;;;;;;;4964846;28;20446;-59
2022/08/08 14:37:45;;;;;;;;;;;;;;;;;;4965073;28;19926;-59
2022/08/08 14:40:11;;;;;;;;;;;;;;;;;;4947138;28;19926;-60
2022/08/08 14:42:38;;;;;;;;;;;;;;;;;;4965578;28;19945;-59
2022/08/08 14:45:04;;;;;;;;;;;;;;;;;;4966526;28;19934;-59
2022/08/08 14:47:30;;;;;;;;;;;;;;;;;;4969240;28;20024;-59
2022/08/08 14:49:56;;;;;;;;;;;;;;;;;;4969329;28;19937;-59
2022/08/08 14:52:22;;;;;;;;;;;;;;;;;;4967610;28;19926;-59
2022/08/08 14:54:48;;;;;;;;;;;;;;;;;;4968722;28;19926;-60
2022/08/08 14:57:14;;;;;;;;;;;;;;;;;;4969034;28;19926;-59
2022/08/08 14:59:40;;;;;;;;;;;;;;;;;;4969019;28;19933;-60
2022/08/08 15:02:06;;;;;;;;;;;;;;;;;;4969079;28;19926;-59
2022/08/08 15:04:32;;;;;;;;;;;;;;;;;;4968300;28;19926;-59
2022/08/08 15:06:58;;;;;;;;;;;;;;;;;;4968097;28;19930;-60
2022/08/08 15:09:24;;;;;;;;;;;;;;;;;;4968514;28;19926;-59
2022/08/08 15:11:50;;;;;;;;;;;;;;;;;;4968848;28;20608;-59
2022/08/08 15:14:16;;;;;;;;;;;;;;;;;;4967805;28;19933;-59
2022/08/08 15:16:42;;;;;;;;;;;;;;;;;;4968956;28;20339;-60
2022/08/08 15:19:08;;;;;;;;;;;;;;;;;;4960668;28;19980;-60
2022/08/08 15:21:34;;;;;;;;;;;;;;;;;;4968112;28;19930;-59
2022/08/08 15:24:01;;;;;;;;;;;;;;;;;;4968323;28;19926;-59
2022/08/08 15:26:26;;;;;;;;;;;;;;;;;;4967933;28;19926;-59
2022/08/08 15:28:52;;;;;;;;;;;;;;;;;;4968830;28;19992;-59
2022/08/08 15:31:18;;;;;;;;;;;;;;;;;;4968312;28;19926;-59
2022/08/08 15:33:44;;;;;;;;;;;;;;;;;;4968242;28;19985;-59
2022/08/08 15:36:11;;;;;;;;;;;;;;;;;;4967732;28;19926;-60
2022/08/08 15:38:37;;;;;;;;;;;;;;;;;;4967849;28;19926;-59
2022/08/08 15:41:03;;;;;;;;;;;;;;;;;;4968429;28;20571;-59
2022/08/08 15:43:29;;;;;;;;;;;;;;;;;;4967893;28;20203;-59
2022/08/08 15:45:55;;;;;;;;;;;;;;;;;;4968099;28;20377;-59
2022/08/08 15:48:21;;;;;;;;;;;;;;;;;;4967832;28;19973;-59
2022/08/08 15:51:03;;;;;;;;;;;;;;;;;;4950562;28;19926;-59
2022/08/08 15:53:29;;;;;;;;;;;;;;;;;;4967275;28;19952;-59
2022/08/08 15:55:55;;;;;;;;;;;;;;;;;;4967861;28;19930;-59
2022/08/08 15:58:21;;;;;;;;;;;;;;;;;;4966192;28;19985;-59
2022/08/08 16:00:47;;;;;;;;;;;;;;;;;;4967933;28;19992;-59
2022/08/08 16:03:13;;;;;;;;;;;;;;;;;;4967765;28;19966;-59
2022/08/08 16:05:39;;;;;;;;;;;;;;;;;;4967471;28;19926;-60
2022/08/08 16:08:05;;;;;;;;;;;;;;;;;;4950020;28;20307;-59
2022/08/08 16:10:31;;;;;;;;;;;;;;;;;;4967103;28;20339;-59
2022/08/08 16:12:58;;;;;;;;;;;;;;;;;;4967889;28;20447;-59
2022/08/08 16:15:24;;;;;;;;;;;;;;;;;;4967148;28;19926;-59
2022/08/08 16:17:50;;;;;;;;;;;;;;;;;;4967558;28;19930;-59
2022/08/08 16:20:16;;;;;;;;;;;;;;;;;;4967044;28;19933;-59
2022/08/08 16:22:42;;;;;;;;;;;;;;;;;;4966824;28;20024;-60
2022/08/08 16:25:08;;;;;;;;;;;;;;;;;;4963320;28;20000;-59
2022/08/08 16:27:34;;;;;;;;;;;;;;;;;;4967706;28;20044;-59
2022/08/08 16:30:00;;;;;;;;;;;;;;;;;;4967507;28;19930;-59
2022/08/08 16:32:26;;;;;;;;;;;;;;;;;;4949397;28;20281;-59
2022/08/08 16:34:52;;;;;;;;;;;;;;;;;;4966701;28;19927;-59
2022/08/08 16:37:18;;;;;;;;;;;;;;;;;;4966382;28;19953;-60
2022/08/08 16:39:44;;;;;;;;;;;;;;;;;;4967165;28;20430;-60
2022/08/08 16:42:10;;;;;;;;;;;;;;;;;;4967273;28;20020;-61
2022/08/08 16:44:36;;;;;;;;;;;;;;;;;;4966860;28;19936;-59
2022/08/08 16:47:02;;;;;;;;;;;;;;;;;;4967154;28;20012;-59
2022/08/08 16:49:28;;;;;;;;;;;;;;;;;;4966799;28;20009;-59